createdAt,value
2017-05-13T00:00:41.988Z,11.20
2017-05-13T00:03:09.511Z,12.25
2017-05-13T00:05:37.047Z,13.53
2017-05-13T00:08:05.670Z,12.63
2017-05-13T00:10:33.189Z,11.38
2017-05-13T00:13:00.703Z,11.82
2017-05-13T00:15:29.984Z,12.60
2017-05-13T00:17:57.532Z,12.37
2017-05-13T00:20:25.050Z,11.93
2017-05-13T00:22:53.368Z,12.55
2017-05-13T00:25:20.892Z,11.88
2017-05-13T00:27:49.185Z,11.35
2017-05-13T00:30:17.483Z,12.13
2017-05-13T00:32:45.047Z,12.45
2017-05-13T00:35:12.581Z,13.08
2017-05-13T00:37:40.088Z,12.38
2017-05-13T00:40:08.383Z,12.73
2017-05-13T00:42:36.703Z,12.28
2017-05-13T00:45:04.217Z,13.83
2017-05-13T00:47:31.715Z,13.03
2017-05-13T00:49:59.252Z,14.22
2017-05-13T00:52:26.764Z,14.70
2017-05-13T00:54:54.293Z,13.27
2017-05-13T00:57:21.811Z,12.90
2017-05-13T00:59:49.363Z,12.28
2017-05-13T01:02:17.159Z,12.58
2017-05-13T01:04:44.687Z,13.80
2017-05-13T01:07:12.288Z,14.40
2017-05-13T01:09:39.844Z,13.48
2017-05-13T01:12:07.443Z,15.70
2017-05-13T01:14:35.712Z,15.03
2017-05-13T01:17:04.045Z,15.40
2017-05-13T01:19:31.802Z,16.35
2017-05-13T01:21:59.321Z,16.62
2017-05-13T01:24:27.660Z,15.73
2017-05-13T01:26:55.224Z,16.50
2017-05-13T01:29:24.616Z,16.08
2017-05-13T01:31:53.645Z,16.45
2017-05-13T01:34:21.980Z,16.08
2017-05-13T01:36:49.519Z,16.20
2017-05-13T01:39:17.785Z,14.98
2017-05-13T01:41:46.107Z,16.18
2017-05-13T01:44:14.407Z,15.23
2017-05-13T01:46:41.909Z,14.55
2017-05-13T01:49:09.440Z,15.30
2017-05-13T01:51:36.935Z,16.47
2017-05-13T01:54:04.781Z,13.52
2017-05-13T01:56:32.638Z,13.47
2017-05-13T01:59:00.919Z,13.00
2017-05-13T02:01:28.416Z,12.60
2017-05-13T02:03:56.757Z,11.92
2017-05-13T02:06:24.393Z,12.30
2017-05-13T02:08:51.915Z,12.72
2017-05-13T02:11:20.183Z,12.67
2017-05-13T02:13:48.491Z,12.03
2017-05-13T02:16:16.809Z,12.72
2017-05-13T02:18:44.653Z,14.22
2017-05-13T02:21:12.925Z,15.17
2017-05-13T02:23:41.220Z,19.23
2017-05-13T02:26:08.721Z,14.43
2017-05-13T02:28:37.031Z,15.02
2017-05-13T02:31:04.580Z,15.34
2017-05-13T02:33:32.159Z,15.27
2017-05-13T02:35:59.939Z,14.47
2017-05-13T02:38:27.468Z,12.88
2017-05-13T02:40:55.234Z,17.97
2017-05-13T02:43:22.786Z,12.12
2017-05-13T02:45:50.340Z,12.93
2017-05-13T02:48:18.624Z,13.97
2017-05-13T02:50:46.153Z,13.28
2017-05-13T02:53:14.429Z,14.55
2017-05-13T02:55:41.948Z,12.68
2017-05-13T02:58:09.453Z,13.95
2017-05-13T03:00:37.688Z,12.12
2017-05-13T03:03:06.222Z,13.13
2017-05-13T03:05:34.747Z,13.85
2017-05-13T03:08:03.247Z,13.27
2017-05-13T03:10:30.769Z,12.83
2017-05-13T03:12:59.776Z,11.42
2017-05-13T03:15:28.100Z,11.97
2017-05-13T03:17:55.669Z,11.13
2017-05-13T03:20:23.428Z,11.70
2017-05-13T03:22:51.188Z,11.00
2017-05-13T03:25:18.789Z,11.82
2017-05-13T03:27:47.323Z,10.82
2017-05-13T03:30:15.084Z,11.35
2017-05-13T03:32:43.345Z,11.02
2017-05-13T03:35:11.984Z,10.48
2017-05-13T03:37:41.240Z,10.23
2017-05-13T03:40:09.568Z,10.57
2017-05-13T03:42:37.843Z,11.37
2017-05-13T03:45:06.374Z,10.40
2017-05-13T03:47:34.185Z,12.05
2017-05-13T03:50:02.716Z,14.20
2017-05-13T03:52:31.296Z,12.63
2017-05-13T03:54:59.118Z,12.17
2017-05-13T03:57:27.744Z,13.58
2017-05-13T03:59:56.014Z,14.20
2017-05-13T04:02:24.367Z,13.42
2017-05-13T04:04:52.699Z,12.82
2017-05-13T04:07:20.213Z,12.47
2017-05-13T04:09:48.540Z,11.57
2017-05-13T04:12:17.586Z,11.87
2017-05-13T04:14:45.080Z,9.97
2017-05-13T04:17:12.583Z,8.35
2017-05-13T04:19:40.119Z,9.62
2017-05-13T04:22:08.435Z,9.93
2017-05-13T04:24:36.727Z,9.72
2017-05-13T04:27:04.294Z,9.72
2017-05-13T04:29:31.824Z,10.98
2017-05-13T04:31:59.389Z,10.52
2017-05-13T04:34:27.647Z,9.70
2017-05-13T04:36:55.219Z,9.18
2017-05-13T04:39:22.778Z,9.70
2017-05-13T04:41:50.419Z,9.85
2017-05-13T04:44:17.998Z,9.12
2017-05-13T04:46:46.280Z,9.35
2017-05-13T04:49:14.547Z,9.10
2017-05-13T04:51:42.064Z,9.98
2017-05-13T04:54:09.588Z,9.04
2017-05-13T04:56:38.644Z,8.75
2017-05-13T04:59:06.251Z,8.83
2017-05-13T05:01:34.544Z,8.35
2017-05-13T05:04:02.039Z,9.68
2017-05-13T05:06:29.535Z,8.27
2017-05-13T05:08:57.864Z,10.02
2017-05-13T05:11:25.358Z,9.20
2017-05-13T05:13:53.907Z,7.45
2017-05-13T05:16:21.715Z,7.90
2017-05-13T05:18:49.992Z,8.07
2017-05-13T05:21:18.282Z,7.68
2017-05-13T05:23:46.623Z,8.10
2017-05-13T05:26:14.935Z,8.65
2017-05-13T05:28:42.451Z,7.68
2017-05-13T05:31:11.455Z,10.70
2017-05-13T05:33:38.963Z,8.43
2017-05-13T05:36:07.559Z,9.97
2017-05-13T05:38:35.296Z,9.67
2017-05-13T05:41:03.552Z,7.55
2017-05-13T05:43:31.858Z,8.73
2017-05-13T05:45:59.627Z,8.22
2017-05-13T05:48:27.162Z,7.35
2017-05-13T05:50:55.421Z,8.70
2017-05-13T05:53:22.935Z,7.77
2017-05-13T05:55:51.523Z,9.37
2017-05-13T05:58:19.024Z,9.72
2017-05-13T06:00:46.582Z,10.90
2017-05-13T06:03:14.104Z,7.82
2017-05-13T06:05:41.641Z,7.12
2017-05-13T06:08:09.168Z,6.60
2017-05-13T06:10:36.682Z,6.27
2017-05-13T06:13:05.224Z,5.85
2017-05-13T06:15:32.764Z,5.75
2017-05-13T06:18:01.077Z,5.83
2017-05-13T06:20:28.611Z,5.77
2017-05-13T06:22:56.925Z,4.93
2017-05-13T06:25:25.259Z,5.30
2017-05-13T06:27:53.579Z,5.72
2017-05-13T06:30:21.862Z,5.14
2017-05-13T06:32:50.182Z,5.32
2017-05-13T06:35:18.499Z,6.18
2017-05-13T06:37:46.052Z,5.44
2017-05-13T06:40:13.596Z,5.00
2017-05-13T06:42:42.664Z,5.76
2017-05-13T06:45:10.923Z,5.88
2017-05-13T06:47:38.480Z,7.38
2017-05-13T06:50:05.985Z,4.94
2017-05-13T06:52:33.733Z,5.48
2017-05-13T06:55:02.299Z,5.60
2017-05-13T06:57:29.861Z,5.02
2017-05-13T06:59:57.359Z,5.78
2017-05-13T07:02:25.659Z,6.62
2017-05-13T07:04:53.972Z,5.10
2017-05-13T07:07:22.324Z,6.14
2017-05-13T07:09:50.925Z,5.96
2017-05-13T07:12:18.683Z,5.90
2017-05-13T07:14:46.196Z,5.90
2017-05-13T07:17:14.460Z,5.24
2017-05-13T07:19:42.759Z,4.80
2017-05-13T07:22:10.304Z,6.70
2017-05-13T07:24:38.658Z,6.40
2017-05-13T07:27:07.659Z,6.52
2017-05-13T07:29:35.935Z,7.62
2017-05-13T07:32:04.240Z,6.80
2017-05-13T07:34:31.775Z,7.88
2017-05-13T07:37:00.071Z,6.73
2017-05-13T07:39:28.368Z,6.60
2017-05-13T07:41:55.919Z,7.20
2017-05-13T07:44:23.446Z,6.30
2017-05-13T07:46:51.987Z,6.16
2017-05-13T07:49:21.367Z,7.26
2017-05-13T07:51:49.636Z,5.82
2017-05-13T07:54:17.981Z,5.90
2017-05-13T07:56:46.331Z,6.30
2017-05-13T07:59:14.595Z,5.66
2017-05-13T08:01:43.660Z,6.64
2017-05-13T08:04:11.165Z,5.72
2017-05-13T08:06:39.447Z,6.38
2017-05-13T08:09:07.703Z,6.34
2017-05-13T08:11:36.012Z,5.52
2017-05-13T08:14:04.303Z,6.43
2017-05-13T08:16:31.882Z,4.97
2017-05-13T08:18:59.379Z,5.72
2017-05-13T08:21:27.734Z,5.75
2017-05-13T08:23:56.015Z,5.80
2017-05-13T08:26:23.520Z,5.53
2017-05-13T08:28:51.829Z,5.27
2017-05-13T08:31:26.284Z,5.27
2017-05-13T08:33:54.955Z,4.60
2017-05-13T08:36:22.568Z,4.40
2017-05-13T08:38:50.084Z,5.48
2017-05-13T08:41:18.428Z,5.46
2017-05-13T08:43:46.007Z,5.48
2017-05-13T08:46:14.314Z,5.42
2017-05-13T08:48:42.919Z,4.98
2017-05-13T08:51:10.791Z,4.92
2017-05-13T08:53:38.365Z,6.34
2017-05-13T08:56:06.004Z,3.96
2017-05-13T08:58:34.643Z,4.94
2017-05-13T09:01:02.900Z,5.12
2017-05-13T09:03:30.431Z,4.50
2017-05-13T09:05:57.985Z,4.68
2017-05-13T09:08:25.488Z,4.84
2017-05-13T09:10:53.808Z,4.58
2017-05-13T09:13:21.672Z,4.03
2017-05-13T09:15:49.967Z,3.80
2017-05-13T09:18:17.759Z,3.68
2017-05-13T09:20:46.047Z,3.60
2017-05-13T09:23:13.569Z,4.03
2017-05-13T09:25:42.588Z,4.25
2017-05-13T09:28:10.100Z,5.00
2017-05-13T09:30:37.619Z,3.05
2017-05-13T09:33:05.262Z,5.73
2017-05-13T09:35:33.564Z,3.68
2017-05-13T09:38:01.086Z,5.93
2017-05-13T09:40:29.620Z,3.52
2017-05-13T09:42:57.900Z,4.43
2017-05-13T09:45:26.193Z,6.17
2017-05-13T09:47:54.645Z,3.38
2017-05-13T09:50:22.184Z,3.57
2017-05-13T09:52:49.760Z,4.12
2017-05-13T09:55:18.020Z,2.15
2017-05-13T09:57:46.319Z,4.35
2017-05-13T10:00:14.575Z,3.15
2017-05-13T10:02:42.123Z,2.93
2017-05-13T10:05:10.431Z,2.40
2017-05-13T10:07:38.995Z,2.72
2017-05-13T10:10:07.283Z,2.42
2017-05-13T10:12:34.792Z,2.23
2017-05-13T10:15:03.408Z,1.90
2017-05-13T10:17:31.984Z,2.42
2017-05-13T10:19:59.480Z,2.63
2017-05-13T10:22:27.760Z,2.22
2017-05-13T10:24:58.249Z,2.20
2017-05-13T10:27:26.532Z,2.12
2017-05-13T10:29:54.840Z,2.02
2017-05-13T10:32:22.422Z,2.28
2017-05-13T10:34:49.923Z,2.33
2017-05-13T10:37:17.491Z,3.10
2017-05-13T10:39:45.000Z,2.53
2017-05-13T10:42:13.543Z,2.20
2017-05-13T10:44:41.079Z,2.67
2017-05-13T10:47:08.627Z,2.88
2017-05-13T10:49:36.962Z,8.35
2017-05-13T10:52:05.480Z,2.38
2017-05-13T10:54:33.264Z,2.40
2017-05-13T10:57:00.855Z,2.78
2017-05-13T10:59:29.210Z,4.55
2017-05-13T11:01:58.589Z,2.42
2017-05-13T11:04:26.164Z,1.78
2017-05-13T11:06:54.467Z,2.05
2017-05-13T11:09:22.824Z,2.37
2017-05-13T11:11:50.547Z,2.38
2017-05-13T11:14:18.804Z,2.85
2017-05-13T11:16:47.140Z,3.13
2017-05-13T11:19:18.716Z,2.48
2017-05-13T11:21:46.710Z,2.95
2017-05-13T11:24:14.251Z,2.15
2017-05-13T11:26:41.804Z,2.45
2017-05-13T11:29:09.295Z,2.32
2017-05-13T11:31:37.646Z,2.25
2017-05-13T11:34:05.939Z,2.68
2017-05-13T11:36:34.291Z,3.00
2017-05-13T11:39:02.560Z,2.68
2017-05-13T11:41:30.071Z,2.03
2017-05-13T11:43:58.337Z,3.60
2017-05-13T11:46:26.671Z,2.20
2017-05-13T11:48:54.185Z,4.57
2017-05-13T11:51:23.556Z,3.17
2017-05-13T11:53:52.587Z,2.63
2017-05-13T11:56:21.123Z,2.48
2017-05-13T11:58:48.640Z,1.90
2017-05-13T12:01:16.969Z,3.75
2017-05-13T12:03:45.251Z,1.73
2017-05-13T12:06:12.743Z,1.85
2017-05-13T12:08:40.323Z,2.40
2017-05-13T12:11:07.816Z,1.82
2017-05-13T12:13:35.355Z,2.37
2017-05-13T12:16:03.632Z,2.78
2017-05-13T12:18:31.188Z,2.00
2017-05-13T12:20:58.951Z,2.18
2017-05-13T12:23:26.513Z,1.58
2017-05-13T12:25:54.407Z,1.72
2017-05-13T12:28:23.466Z,2.62
2017-05-13T12:30:51.276Z,2.95
2017-05-13T12:33:19.606Z,2.98
2017-05-13T12:35:47.101Z,2.67
2017-05-13T12:38:15.403Z,2.95
2017-05-13T12:40:42.895Z,2.05
2017-05-13T12:43:10.655Z,2.12
2017-05-13T12:45:38.146Z,1.72
2017-05-13T12:48:07.138Z,2.20
2017-05-13T12:50:36.505Z,1.95
2017-05-13T12:53:04.775Z,2.40
2017-05-13T12:55:32.587Z,2.32
2017-05-13T12:58:00.992Z,3.62
2017-05-13T13:00:28.630Z,2.00
2017-05-13T13:02:57.287Z,2.12
2017-05-13T13:05:24.826Z,3.32
2017-05-13T13:07:54.149Z,2.03
2017-05-13T13:10:21.667Z,2.20
2017-05-13T13:12:49.158Z,2.50
2017-05-13T13:15:18.209Z,1.40
2017-05-13T13:17:46.457Z,2.90
2017-05-13T13:20:14.975Z,3.87
2017-05-13T13:22:42.500Z,2.62
2017-05-13T13:25:10.008Z,1.83
2017-05-13T13:27:38.307Z,2.30
2017-05-13T13:30:05.900Z,3.62
2017-05-13T13:32:33.388Z,1.87
2017-05-13T13:35:00.956Z,3.00
2017-05-13T13:37:28.491Z,1.60
2017-05-13T13:39:56.775Z,1.90
2017-05-13T13:42:25.072Z,2.18
2017-05-13T13:44:52.908Z,2.82
2017-05-13T13:47:21.592Z,1.68
2017-05-13T13:49:49.103Z,2.68
2017-05-13T13:52:17.741Z,1.98
2017-05-13T13:54:45.598Z,2.10
2017-05-13T13:57:13.462Z,2.98
2017-05-13T13:59:41.776Z,2.65
2017-05-13T14:02:09.597Z,2.30
2017-05-13T14:04:37.899Z,2.17
2017-05-13T14:07:05.791Z,3.13
2017-05-13T14:09:34.102Z,2.38
2017-05-13T14:12:01.740Z,2.27
2017-05-13T14:14:30.070Z,2.57
2017-05-13T14:16:57.624Z,3.65
2017-05-13T14:19:25.123Z,2.42
2017-05-13T14:21:53.524Z,2.68
2017-05-13T14:24:22.122Z,3.42
2017-05-13T14:26:50.455Z,2.65
2017-05-13T14:29:18.804Z,3.08
2017-05-13T14:31:46.339Z,1.88
2017-05-13T14:34:14.616Z,1.95
2017-05-13T14:36:42.127Z,1.75
2017-05-13T14:39:09.675Z,2.25
2017-05-13T14:41:38.033Z,2.85
2017-05-13T14:44:05.649Z,1.88
2017-05-13T14:46:33.176Z,2.97
2017-05-13T14:49:01.483Z,2.05
2017-05-13T14:51:30.172Z,4.12
2017-05-13T14:53:57.703Z,3.48
2017-05-13T14:56:25.252Z,3.55
2017-05-13T14:58:52.784Z,1.93
2017-05-13T15:01:21.080Z,2.10
2017-05-13T15:03:49.390Z,2.45
2017-05-13T15:06:17.151Z,2.20
2017-05-13T15:08:45.476Z,2.57
2017-05-13T15:11:13.799Z,2.33
2017-05-13T15:13:42.103Z,3.62
2017-05-13T15:16:10.383Z,1.92
2017-05-13T15:18:37.881Z,2.12
2017-05-13T15:21:06.159Z,2.65
2017-05-13T15:23:33.657Z,1.88
2017-05-13T15:26:01.979Z,2.38
2017-05-13T15:28:29.554Z,2.15
2017-05-13T15:30:57.336Z,2.43
2017-05-13T15:33:25.640Z,22.22
2017-05-13T15:35:53.151Z,2.20
2017-05-13T15:38:20.727Z,2.30
2017-05-13T15:40:48.268Z,2.13
2017-05-13T15:43:15.811Z,3.42
2017-05-13T15:45:44.103Z,2.77
2017-05-13T15:48:12.364Z,3.48
2017-05-13T15:50:39.851Z,2.35
2017-05-13T15:53:07.358Z,2.72
2017-05-13T15:55:35.635Z,2.10
2017-05-13T15:58:04.187Z,1.57
2017-05-13T16:00:31.679Z,2.42
2017-05-13T16:02:59.297Z,1.52
2017-05-13T16:05:26.787Z,2.62
2017-05-13T16:07:55.312Z,2.15
2017-05-13T16:10:23.661Z,1.40
2017-05-13T16:12:51.936Z,1.70
2017-05-13T16:15:19.473Z,1.48
2017-05-13T16:17:47.752Z,3.73
2017-05-13T16:20:16.015Z,2.65
2017-05-13T16:22:44.372Z,5.05
2017-05-13T16:25:11.868Z,2.48
2017-05-13T16:27:39.399Z,2.83
2017-05-13T16:30:07.659Z,4.47
2017-05-13T16:32:36.703Z,4.08
2017-05-13T16:35:04.233Z,5.87
2017-05-13T16:37:32.561Z,1.87
2017-05-13T16:40:00.840Z,2.53
2017-05-13T16:42:29.175Z,1.87
2017-05-13T16:44:56.732Z,2.17
2017-05-13T16:47:25.041Z,2.15
2017-05-13T16:49:52.556Z,1.75
2017-05-13T16:52:20.815Z,4.12
2017-05-13T16:54:49.095Z,1.75
2017-05-13T16:57:17.400Z,1.85
2017-05-13T16:59:45.179Z,41.67
2017-05-13T17:02:12.673Z,2.67
2017-05-13T17:04:41.256Z,2.98
2017-05-13T17:07:08.788Z,2.38
2017-05-13T17:09:37.304Z,3.55
2017-05-13T17:12:05.555Z,1.95
2017-05-13T17:14:33.068Z,2.15
2017-05-13T17:17:01.565Z,2.13
2017-05-13T17:19:29.488Z,3.03
2017-05-13T17:21:57.805Z,3.13
2017-05-13T17:24:25.332Z,2.17
2017-05-13T17:26:52.839Z,2.32
2017-05-13T17:29:20.335Z,3.10
2017-05-13T17:31:48.615Z,1.85
2017-05-13T17:34:16.414Z,1.30
2017-05-13T17:36:44.175Z,2.07
2017-05-13T17:39:11.667Z,1.48
2017-05-13T17:41:39.247Z,1.32
2017-05-13T17:44:07.807Z,1.38
2017-05-13T17:46:36.091Z,1.93
2017-05-13T17:49:04.678Z,3.10
2017-05-13T17:51:32.990Z,2.65
2017-05-13T17:54:01.252Z,1.50
2017-05-13T17:56:28.804Z,1.62
2017-05-13T17:58:56.719Z,1.77
2017-05-13T18:01:24.508Z,1.80
2017-05-13T18:03:52.832Z,3.63
2017-05-13T18:06:20.593Z,5.92
2017-05-13T18:08:48.089Z,2.27
2017-05-13T18:11:17.375Z,1.85
2017-05-13T18:13:46.480Z,1.95
2017-05-13T18:16:14.004Z,2.18
2017-05-13T18:18:41.563Z,2.10
2017-05-13T18:21:09.832Z,2.45
2017-05-13T18:23:38.197Z,2.08
2017-05-13T18:26:06.804Z,3.02
2017-05-13T18:28:35.376Z,3.25
2017-05-13T18:31:02.928Z,4.47
2017-05-13T18:33:30.463Z,2.48
2017-05-13T18:35:58.758Z,2.55
2017-05-13T18:38:27.054Z,2.47
2017-05-13T18:40:54.547Z,3.37
2017-05-13T18:43:22.827Z,4.20
2017-05-13T18:45:51.088Z,2.88
2017-05-13T18:48:18.669Z,3.05
2017-05-13T18:50:46.164Z,2.95
2017-05-13T18:53:14.019Z,4.33
2017-05-13T18:55:41.511Z,4.72
2017-05-13T18:58:10.544Z,3.38
2017-05-13T19:00:38.060Z,4.00
2017-05-13T19:03:05.552Z,3.88
2017-05-13T19:05:33.104Z,4.45
2017-05-13T19:08:01.424Z,3.07
2017-05-13T19:10:29.008Z,3.90
2017-05-13T19:12:56.560Z,9.78
2017-05-13T19:15:24.837Z,9.47
2017-05-13T19:17:53.152Z,8.08
2017-05-13T19:20:20.716Z,10.20
2017-05-13T19:22:48.501Z,8.20
2017-05-13T19:25:15.996Z,5.77
2017-05-13T19:27:44.581Z,5.90
2017-05-13T19:30:12.067Z,4.02
2017-05-13T19:32:39.603Z,6.90
2017-05-13T19:35:07.892Z,4.72
2017-05-13T19:37:35.448Z,9.17
2017-05-13T19:40:03.775Z,12.12
2017-05-13T19:42:32.280Z,11.97
2017-05-13T19:44:59.807Z,12.22
2017-05-13T19:47:29.315Z,10.45
2017-05-13T19:49:57.636Z,14.17
2017-05-13T19:52:25.954Z,10.30
2017-05-13T19:54:53.500Z,10.32
2017-05-13T19:57:21.267Z,9.15
2017-05-13T19:59:49.607Z,8.90
2017-05-13T20:02:17.937Z,7.93
2017-05-13T20:04:46.200Z,7.80
2017-05-13T20:07:13.955Z,7.18
2017-05-13T20:09:41.459Z,13.23
2017-05-13T20:12:10.019Z,6.52
2017-05-13T20:14:37.517Z,6.15
2017-05-13T20:17:05.103Z,7.53
2017-05-13T20:19:33.368Z,7.58
2017-05-13T20:22:00.864Z,10.42
2017-05-13T20:24:28.427Z,9.13
2017-05-13T20:26:57.484Z,7.28
2017-05-13T20:29:25.797Z,7.60
2017-05-13T20:31:54.885Z,9.23
2017-05-13T20:34:22.513Z,8.82
2017-05-13T20:36:50.247Z,7.97
2017-05-13T20:39:17.806Z,6.82
2017-05-13T20:41:45.300Z,5.78
2017-05-13T20:44:12.859Z,5.85
2017-05-13T20:46:40.416Z,6.67
2017-05-13T20:49:07.956Z,5.65
2017-05-13T20:51:35.451Z,5.00
2017-05-13T20:54:04.474Z,4.97
2017-05-13T20:56:31.992Z,6.38
2017-05-13T20:58:59.550Z,5.05
2017-05-13T21:01:27.044Z,5.40
2017-05-13T21:03:55.457Z,6.83
2017-05-13T21:06:23.098Z,6.92
2017-05-13T21:08:50.628Z,8.02
2017-05-13T21:11:18.932Z,8.88
2017-05-13T21:13:46.480Z,8.28
2017-05-13T21:16:14.044Z,9.98
2017-05-13T21:18:43.720Z,7.70
2017-05-13T21:21:12.033Z,7.82
2017-05-13T21:23:40.358Z,11.02
2017-05-13T21:26:07.985Z,7.63
2017-05-13T21:28:36.281Z,7.55
2017-05-13T21:31:03.886Z,7.32
2017-05-13T21:33:31.516Z,7.97
2017-05-13T21:35:59.035Z,7.20
2017-05-13T21:38:27.699Z,6.70
2017-05-13T21:40:55.228Z,6.60
2017-05-13T21:43:23.781Z,7.00
2017-05-13T21:45:51.284Z,6.60
2017-05-13T21:48:19.701Z,7.17
2017-05-13T21:50:47.999Z,6.87
2017-05-13T21:53:15.556Z,5.70
2017-05-13T21:55:43.157Z,6.87
2017-05-13T21:58:11.440Z,7.52
2017-05-13T22:00:39.704Z,6.60
2017-05-13T22:03:07.263Z,6.63
2017-05-13T22:05:35.371Z,5.78
2017-05-13T22:08:03.700Z,5.95
2017-05-13T22:10:31.318Z,7.57
2017-05-13T22:12:59.791Z,6.65
2017-05-13T22:15:27.284Z,7.13
2017-05-13T22:17:55.874Z,6.50
2017-05-13T22:20:23.376Z,6.12
2017-05-13T22:22:51.695Z,6.63
2017-05-13T22:25:20.219Z,7.98
2017-05-13T22:27:47.763Z,6.23
2017-05-13T22:30:16.028Z,6.18
2017-05-13T22:32:43.572Z,7.15
2017-05-13T22:35:11.103Z,5.90
2017-05-13T22:37:40.140Z,5.72
2017-05-13T22:40:08.851Z,7.13
2017-05-13T22:42:36.394Z,6.25
2017-05-13T22:45:03.911Z,6.18
2017-05-13T22:47:32.168Z,7.03
2017-05-13T22:50:00.517Z,7.12
2017-05-13T22:52:28.061Z,7.48
2017-05-13T22:54:55.579Z,6.38
2017-05-13T22:57:23.836Z,7.18
2017-05-13T22:59:52.177Z,8.28
2017-05-13T23:02:19.679Z,7.38
2017-05-13T23:04:48.005Z,8.22
2017-05-13T23:07:16.296Z,7.62
2017-05-13T23:09:45.335Z,7.52
2017-05-13T23:12:12.843Z,7.63
2017-05-13T23:14:40.372Z,6.97
2017-05-13T23:17:07.873Z,7.28
2017-05-13T23:19:35.373Z,7.12
2017-05-13T23:22:02.887Z,6.55
2017-05-13T23:24:30.431Z,7.05
2017-05-13T23:26:59.707Z,7.63
2017-05-13T23:29:27.965Z,6.90
2017-05-13T23:31:55.515Z,7.08
2017-05-13T23:34:23.007Z,7.60
2017-05-13T23:36:51.280Z,7.58
2017-05-13T23:39:18.772Z,8.12
2017-05-13T23:41:47.048Z,7.27
2017-05-13T23:44:15.307Z,7.43
2017-05-13T23:46:42.829Z,7.30
2017-05-13T23:49:11.413Z,7.95
2017-05-13T23:51:38.907Z,8.20
2017-05-13T23:54:06.433Z,9.02
2017-05-13T23:56:34.686Z,7.33
2017-05-13T23:59:02.199Z,8.02
